Banner, Wyoming
Current Conditions -  °F | °C
As of 1:53 AM on Sunday 26 Oct 2014 (Local Time) from KSHR Reporting Station
Clear Clear  
Wind Chill: 11°   Ceiling: Unl
Heat Index: 11°   Visibility: 10mi
Dew Point: -2°   Wind: 0mph
Humidity: 43%   Direction: NA
Pressure: 29.65"   Gusts: NA
Location:  44.6°N, 106.87°W
Report Text: KSHR 260753Z AUTO 00000KT 10SM CLR 11/M02 A2965 RMK AO2 SLP019 T01061017 TSNO
Loading
Personal Weather Stations






























Interactive Weather Map
Tropical Storm Tracking
New forecast layout! Learn more

10-Day Weather Forecast

Advertisements
Track Severe Weather on mobile